createdAt,value
2018-07-23T00:01:41.126Z,95396.00
2018-07-23T00:04:10.635Z,95399.00
2018-07-23T00:06:40.055Z,95392.00
2018-07-23T00:09:09.440Z,95395.00
2018-07-23T00:11:39.276Z,95397.00
2018-07-23T00:14:08.669Z,95391.00
2018-07-23T00:16:38.078Z,95392.00
2018-07-23T00:19:07.488Z,95384.00
2018-07-23T00:21:36.877Z,95391.00
2018-07-23T00:24:07.468Z,95391.00
2018-07-23T00:26:36.869Z,95394.00
2018-07-23T00:29:06.202Z,95392.00
2018-07-23T00:31:35.604Z,95393.00
2018-07-23T00:34:05.021Z,95392.00
2018-07-23T00:36:34.459Z,95383.00
2018-07-23T00:39:06.061Z,95391.00
2018-07-23T00:41:35.466Z,95390.00
2018-07-23T00:44:05.331Z,95393.00
2018-07-23T00:46:34.767Z,95388.00
2018-07-23T00:49:04.147Z,95374.00
2018-07-23T00:51:33.171Z,95379.00
2018-07-23T00:54:02.565Z,95378.00
2018-07-23T00:56:32.008Z,95375.00
2018-07-23T00:59:01.377Z,95372.00
2018-07-23T01:01:30.820Z,95377.00
2018-07-23T01:04:00.147Z,95376.00
2018-07-23T01:06:29.987Z,95370.00
2018-07-23T01:08:59.493Z,95369.00
2018-07-23T01:11:28.834Z,95371.00
2018-07-23T01:13:58.903Z,95371.00
2018-07-23T01:16:28.263Z,95367.00
2018-07-23T01:18:57.679Z,95365.00
2018-07-23T01:21:27.105Z,95366.00
2018-07-23T01:23:56.469Z,95350.00
2018-07-23T01:26:25.870Z,95359.00
2018-07-23T01:28:55.278Z,95360.00
2018-07-23T01:31:24.648Z,95362.00
2018-07-23T01:33:54.027Z,95358.00
2018-07-23T01:36:23.489Z,95369.00
2018-07-23T01:38:52.910Z,95365.00
2018-07-23T01:41:22.956Z,95367.00
2018-07-23T01:43:52.298Z,95367.00
2018-07-23T01:46:21.649Z,95372.00
2018-07-23T01:48:50.996Z,95363.00
2018-07-23T01:51:20.399Z,95359.00
2018-07-23T01:53:49.742Z,95359.00
2018-07-23T01:56:19.258Z,95363.00
2018-07-23T01:58:48.617Z,95374.00
2018-07-23T02:01:18.126Z,95373.00
2018-07-23T02:03:47.458Z,95368.00
2018-07-23T02:06:16.820Z,95372.00
2018-07-23T02:08:46.154Z,95370.00
2018-07-23T02:11:15.670Z,95375.00
2018-07-23T02:13:45.143Z,95376.00
2018-07-23T02:16:14.649Z,95377.00
2018-07-23T02:18:43.989Z,95374.00
2018-07-23T02:21:13.940Z,95368.00
2018-07-23T02:23:43.403Z,95365.00
2018-07-23T02:26:12.880Z,95357.00
2018-07-23T02:28:42.254Z,95366.00
2018-07-23T02:31:11.681Z,95375.00
2018-07-23T02:33:41.031Z,95372.00
2018-07-23T02:36:10.423Z,95372.00
2018-07-23T02:38:39.806Z,95371.00
2018-07-23T02:41:09.521Z,95373.00
2018-07-23T02:43:38.884Z,95376.00
2018-07-23T02:46:08.310Z,95375.00
2018-07-23T02:48:37.740Z,95377.00
2018-07-23T02:51:07.166Z,95380.00
2018-07-23T02:53:37.201Z,95378.00
2018-07-23T02:56:06.910Z,95373.00
2018-07-23T02:58:36.380Z,95387.00
2018-07-23T03:01:06.592Z,95395.00
2018-07-23T03:03:36.250Z,95382.00
2018-07-23T03:06:05.688Z,95384.00
2018-07-23T03:08:34.739Z,95386.00
2018-07-23T03:11:04.140Z,95383.00
2018-07-23T03:13:34.155Z,95379.00
2018-07-23T03:16:03.457Z,95381.00
2018-07-23T03:18:32.801Z,95386.00
2018-07-23T03:21:02.291Z,95399.00
2018-07-23T03:23:31.717Z,95395.00
2018-07-23T03:26:01.051Z,95399.00
2018-07-23T03:28:30.454Z,95415.00
2018-07-23T03:30:59.826Z,95403.00
2018-07-23T03:33:29.226Z,95398.00
2018-07-23T03:35:58.637Z,95396.00
2018-07-23T03:38:28.103Z,95402.00
2018-07-23T03:40:57.451Z,95402.00
2018-07-23T03:43:26.787Z,95406.00
2018-07-23T03:45:56.221Z,95405.00
2018-07-23T03:48:25.637Z,95419.00
2018-07-23T03:50:54.689Z,95414.00
2018-07-23T03:53:24.098Z,95411.00
2018-07-23T03:55:53.626Z,95415.00
2018-07-23T03:58:23.001Z,95414.00
2018-07-23T04:00:52.389Z,95415.00
2018-07-23T04:03:21.738Z,95413.00
2018-07-23T04:05:51.692Z,95414.00
2018-07-23T04:08:21.112Z,95419.00
2018-07-23T04:10:51.124Z,95413.00
2018-07-23T04:13:20.457Z,95417.00
2018-07-23T04:15:49.853Z,95414.00
2018-07-23T04:18:19.272Z,95418.00
2018-07-23T04:20:48.811Z,95434.00
2018-07-23T04:23:18.201Z,95428.00
2018-07-23T04:25:47.577Z,95434.00
2018-07-23T04:28:16.912Z,95433.00
2018-07-23T04:30:46.330Z,95435.00
2018-07-23T04:33:15.685Z,95431.00
2018-07-23T04:35:45.811Z,95436.00
2018-07-23T04:38:15.181Z,95441.00
2018-07-23T04:40:45.469Z,95434.00
2018-07-23T04:43:14.829Z,95449.00
2018-07-23T04:45:44.151Z,95441.00
2018-07-23T04:48:13.517Z,95439.00
2018-07-23T04:50:42.852Z,95438.00
2018-07-23T04:53:11.973Z,95442.00
2018-07-23T04:55:42.199Z,95440.00
2018-07-23T04:58:11.572Z,95453.00
2018-07-23T05:00:41.372Z,95445.00
2018-07-23T05:03:10.791Z,95446.00
2018-07-23T05:05:39.901Z,95438.00
2018-07-23T05:08:09.323Z,95452.00
2018-07-23T05:10:39.494Z,95460.00
2018-07-23T05:13:09.493Z,95449.00
2018-07-23T05:15:38.969Z,95449.00
2018-07-23T05:18:08.404Z,95442.00
2018-07-23T05:20:40.332Z,95445.00
2018-07-23T05:23:10.228Z,95447.00
2018-07-23T05:25:39.768Z,95445.00
2018-07-23T05:28:10.064Z,95448.00
2018-07-23T05:30:39.482Z,95442.00
2018-07-23T05:33:09.620Z,95462.00
2018-07-23T05:35:39.061Z,95458.00
2018-07-23T05:38:08.867Z,95448.00
2018-07-23T05:40:38.298Z,95448.00
2018-07-23T05:43:08.110Z,95444.00
2018-07-23T05:45:38.304Z,95448.00
2018-07-23T05:48:07.967Z,95450.00
2018-07-23T05:50:37.462Z,95440.00
2018-07-23T05:53:06.974Z,95450.00
2018-07-23T05:55:36.402Z,95465.00
2018-07-23T05:58:05.886Z,95461.00
2018-07-23T06:00:35.324Z,95462.00
2018-07-23T06:03:06.618Z,95461.00
2018-07-23T06:05:36.037Z,95458.00
2018-07-23T06:08:05.874Z,95463.00
2018-07-23T06:10:35.758Z,95458.00
2018-07-23T06:13:05.287Z,95461.00
2018-07-23T06:15:35.960Z,95463.00
2018-07-23T06:18:05.581Z,95460.00
2018-07-23T06:20:36.186Z,95467.00
2018-07-23T06:23:05.667Z,95468.00
2018-07-23T06:25:35.065Z,95463.00
2018-07-23T06:28:04.679Z,95467.00
2018-07-23T06:30:34.105Z,95474.00
2018-07-23T06:33:03.179Z,95475.00
2018-07-23T06:35:32.689Z,95474.00
2018-07-23T06:38:02.097Z,95473.00
2018-07-23T06:40:31.604Z,95476.00
2018-07-23T06:43:01.026Z,95474.00
2018-07-23T06:45:30.780Z,95472.00
2018-07-23T06:48:00.321Z,95479.00
2018-07-23T06:50:29.835Z,95481.00
2018-07-23T06:52:59.535Z,95473.00
2018-07-23T06:55:29.055Z,95475.00
2018-07-23T06:57:59.619Z,95486.00
2018-07-23T07:00:29.082Z,95493.00
2018-07-23T07:02:58.545Z,95491.00
2018-07-23T07:05:28.092Z,95486.00
2018-07-23T07:07:59.958Z,95487.00
2018-07-23T07:10:29.535Z,95496.00
2018-07-23T07:13:00.276Z,95499.00
2018-07-23T07:15:30.495Z,95495.00
2018-07-23T07:17:59.886Z,95506.00
2018-07-23T07:20:29.318Z,95502.00
2018-07-23T07:22:59.372Z,95505.00
2018-07-23T07:25:29.508Z,95507.00
2018-07-23T07:27:58.940Z,95506.00
2018-07-23T07:30:28.462Z,95503.00
2018-07-23T07:32:58.003Z,95512.00
2018-07-23T07:35:27.503Z,95511.00
2018-07-23T07:37:56.988Z,95519.00
2018-07-23T07:40:27.021Z,95512.00
2018-07-23T07:42:56.882Z,95513.00
2018-07-23T07:45:26.985Z,95525.00
2018-07-23T07:47:56.505Z,95516.00
2018-07-23T07:50:26.938Z,95517.00
2018-07-23T07:52:56.791Z,95519.00
2018-07-23T07:55:26.510Z,95520.00
2018-07-23T07:57:56.627Z,95526.00
2018-07-23T08:00:26.194Z,95528.00
2018-07-23T08:02:55.632Z,95528.00
2018-07-23T08:05:25.327Z,95526.00
2018-07-23T08:07:55.636Z,95527.00
2018-07-23T08:10:25.144Z,95526.00
2018-07-23T08:12:54.604Z,95534.00
2018-07-23T08:15:24.850Z,95530.00
2018-07-23T08:17:54.742Z,95533.00
2018-07-23T08:20:25.057Z,95536.00
2018-07-23T08:22:54.432Z,95535.00
2018-07-23T08:25:24.479Z,95535.00
2018-07-23T08:27:53.921Z,95531.00
2018-07-23T08:30:23.445Z,95539.00
2018-07-23T08:32:52.894Z,95542.00
2018-07-23T08:35:22.687Z,95546.00
2018-07-23T08:37:52.084Z,95537.00
2018-07-23T08:40:21.579Z,95552.00
2018-07-23T08:42:51.881Z,95553.00
2018-07-23T08:45:22.303Z,95553.00
2018-07-23T08:47:51.877Z,95561.00
2018-07-23T08:50:21.337Z,95554.00
2018-07-23T08:52:50.727Z,95552.00
2018-07-23T08:55:20.171Z,95560.00
2018-07-23T08:57:49.640Z,95561.00
2018-07-23T09:00:19.276Z,95557.00
2018-07-23T09:02:49.390Z,95568.00
2018-07-23T09:05:18.851Z,95564.00
2018-07-23T09:07:48.251Z,95573.00
2018-07-23T09:10:18.331Z,95568.00
2018-07-23T09:12:47.766Z,95576.00
2018-07-23T09:15:18.932Z,95579.00
2018-07-23T09:17:48.386Z,95579.00
2018-07-23T09:20:17.892Z,95577.00
2018-07-23T09:22:48.170Z,95574.00
2018-07-23T09:25:17.616Z,95577.00
2018-07-23T09:27:47.031Z,95585.00
2018-07-23T09:30:54.117Z,95588.00
2018-07-23T09:33:24.604Z,95591.00
2018-07-23T09:35:54.528Z,95587.00
2018-07-23T09:38:24.852Z,95590.00
2018-07-23T09:40:54.342Z,95581.00
2018-07-23T09:43:23.872Z,95570.00
2018-07-23T09:45:53.302Z,95577.00
2018-07-23T09:48:22.782Z,95576.00
2018-07-23T09:50:52.206Z,95579.00
2018-07-23T09:53:22.252Z,95587.00
2018-07-23T09:55:52.055Z,95577.00
2018-07-23T09:58:21.487Z,95577.00
2018-07-23T10:00:55.627Z,95582.00
2018-07-23T10:03:25.615Z,95581.00
2018-07-23T10:05:54.824Z,95576.00
2018-07-23T10:08:24.228Z,95579.00
2018-07-23T10:10:53.851Z,95575.00
2018-07-23T10:13:24.378Z,95567.00
2018-07-23T10:15:53.834Z,95568.00
2018-07-23T10:18:23.313Z,95562.00
2018-07-23T10:20:53.053Z,95565.00
2018-07-23T10:23:24.049Z,95569.00
2018-07-23T10:25:53.865Z,95569.00
2018-07-23T10:28:23.591Z,95570.00
2018-07-23T10:30:53.409Z,95561.00
2018-07-23T10:33:22.963Z,95557.00
2018-07-23T10:35:53.211Z,95559.00
2018-07-23T10:38:23.393Z,95550.00
2018-07-23T10:40:52.801Z,95549.00
2018-07-23T10:43:22.179Z,95543.00
2018-07-23T10:45:51.641Z,95551.00
2018-07-23T10:48:21.134Z,95543.00
2018-07-23T10:50:50.501Z,95546.00
2018-07-23T10:53:19.891Z,95539.00
2018-07-23T10:55:49.258Z,95539.00
2018-07-23T10:58:19.260Z,95548.00
2018-07-23T11:00:48.684Z,95551.00
2018-07-23T11:03:18.537Z,95541.00
2018-07-23T11:05:47.964Z,95544.00
2018-07-23T11:08:17.440Z,95545.00
2018-07-23T11:10:46.869Z,95542.00
2018-07-23T11:13:17.314Z,95542.00
2018-07-23T11:15:46.785Z,95549.00
2018-07-23T11:18:16.135Z,95551.00
2018-07-23T11:20:45.599Z,95546.00
2018-07-23T11:23:15.002Z,95551.00
2018-07-23T11:25:44.227Z,95549.00
2018-07-23T11:28:13.691Z,95552.00
2018-07-23T11:30:42.997Z,95543.00
2018-07-23T11:33:12.489Z,95536.00
2018-07-23T11:35:41.960Z,95551.00
2018-07-23T11:38:12.217Z,95550.00
2018-07-23T11:40:41.679Z,95539.00
2018-07-23T11:43:12.000Z,95540.00
2018-07-23T11:45:41.423Z,95536.00
2018-07-23T11:48:10.852Z,95541.00
2018-07-23T11:50:40.259Z,95535.00
2018-07-23T11:53:09.587Z,95534.00
2018-07-23T11:55:39.000Z,95534.00
2018-07-23T11:58:08.472Z,95540.00
2018-07-23T12:00:38.588Z,95534.00
2018-07-23T12:03:08.162Z,95534.00
2018-07-23T12:05:37.935Z,95531.00
2018-07-23T12:08:07.414Z,95537.00
2018-07-23T12:10:36.931Z,95535.00
2018-07-23T12:13:06.610Z,95532.00
2018-07-23T12:15:35.980Z,95535.00
2018-07-23T12:18:06.161Z,95530.00
2018-07-23T12:20:35.627Z,95533.00
2018-07-23T12:23:05.003Z,95531.00
2018-07-23T12:25:35.134Z,95520.00
2018-07-23T12:28:04.643Z,95537.00
2018-07-23T12:30:34.114Z,95531.00
2018-07-23T12:33:03.537Z,95528.00
2018-07-23T12:35:33.417Z,95530.00
2018-07-23T12:38:02.849Z,95528.00
2018-07-23T12:40:32.295Z,95528.00
2018-07-23T12:43:01.767Z,95537.00
2018-07-23T12:45:31.252Z,95528.00
2018-07-23T12:48:00.726Z,95537.00
2018-07-23T12:50:30.741Z,95526.00
2018-07-23T12:53:01.038Z,95534.00
2018-07-23T12:55:30.441Z,95534.00
2018-07-23T12:57:59.873Z,95527.00
2018-07-23T13:00:29.311Z,95539.00
2018-07-23T13:02:58.805Z,95530.00
2018-07-23T13:05:31.955Z,95520.00
2018-07-23T13:08:03.745Z,95528.00
2018-07-23T13:10:33.162Z,95521.00
2018-07-23T13:13:02.597Z,95524.00
2018-07-23T13:15:31.918Z,95522.00
2018-07-23T13:18:01.292Z,95535.00
2018-07-23T13:20:30.800Z,95533.00
2018-07-23T13:23:00.166Z,95539.00
2018-07-23T13:25:29.635Z,95531.00
2018-07-23T13:27:59.480Z,95523.00
2018-07-23T13:30:29.056Z,95528.00
2018-07-23T13:32:58.536Z,95533.00
2018-07-23T13:35:28.408Z,95533.00
2018-07-23T13:37:57.803Z,95524.00
2018-07-23T13:40:27.092Z,95534.00
2018-07-23T13:42:56.522Z,95533.00
2018-07-23T13:45:25.908Z,95536.00
2018-07-23T13:47:55.434Z,95525.00
2018-07-23T13:50:25.024Z,95523.00
2018-07-23T13:52:54.475Z,95528.00
2018-07-23T13:55:23.872Z,95526.00
2018-07-23T13:57:53.276Z,95528.00
2018-07-23T14:00:22.914Z,95528.00
2018-07-23T14:02:53.036Z,95517.00
2018-07-23T14:05:23.057Z,95523.00
2018-07-23T14:07:52.482Z,95518.00
2018-07-23T14:10:22.403Z,95511.00
2018-07-23T14:12:52.964Z,95515.00
2018-07-23T14:15:24.407Z,95510.00
2018-07-23T14:17:54.436Z,95509.00
2018-07-23T14:20:23.981Z,95515.00
2018-07-23T14:22:53.362Z,95528.00
2018-07-23T14:25:23.793Z,95505.00
2018-07-23T14:27:53.263Z,95517.00
2018-07-23T14:30:22.677Z,95509.00
2018-07-23T14:32:52.139Z,95514.00
2018-07-23T14:35:21.807Z,95513.00
2018-07-23T14:37:52.193Z,95512.00
2018-07-23T14:40:22.097Z,95518.00
2018-07-23T14:42:52.920Z,95506.00
2018-07-23T14:45:23.201Z,95511.00
2018-07-23T14:47:53.387Z,95515.00
2018-07-23T14:50:23.833Z,95514.00
2018-07-23T14:52:54.079Z,95516.00
2018-07-23T14:55:24.966Z,95516.00
2018-07-23T14:57:54.473Z,95503.00
2018-07-23T15:00:23.875Z,95505.00
2018-07-23T15:02:59.342Z,95504.00
2018-07-23T15:05:28.683Z,95519.00
2018-07-23T15:07:58.911Z,95502.00
2018-07-23T15:10:28.382Z,95500.00
2018-07-23T15:12:58.440Z,95499.00
2018-07-23T15:15:27.802Z,95508.00
2018-07-23T15:17:57.850Z,95499.00
2018-07-23T15:20:27.306Z,95509.00
2018-07-23T15:22:56.746Z,95508.00
2018-07-23T15:25:26.199Z,95507.00
2018-07-23T15:27:55.569Z,95512.00
2018-07-23T15:30:25.162Z,95516.00
2018-07-23T15:32:54.589Z,95515.00
2018-07-23T15:35:23.605Z,95509.00
2018-07-23T15:37:53.057Z,95512.00
2018-07-23T15:40:22.494Z,95514.00
2018-07-23T15:42:52.016Z,95514.00
2018-07-23T15:45:22.142Z,95519.00
2018-07-23T15:47:52.223Z,95511.00
2018-07-23T15:50:22.183Z,95515.00
2018-07-23T15:52:51.662Z,95520.00
2018-07-23T15:55:21.837Z,95512.00
2018-07-23T15:57:51.165Z,95512.00
2018-07-23T16:00:20.561Z,95515.00
2018-07-23T16:02:49.951Z,95506.00
2018-07-23T16:05:19.411Z,95513.00
2018-07-23T16:07:48.673Z,95512.00
2018-07-23T16:10:18.466Z,95505.00
2018-07-23T16:12:47.889Z,95500.00
2018-07-23T16:15:17.290Z,95503.00
2018-07-23T16:17:46.708Z,95494.00
2018-07-23T16:20:16.146Z,95497.00
2018-07-23T16:22:45.550Z,95508.00
2018-07-23T16:25:15.051Z,95497.00
2018-07-23T16:27:44.454Z,95497.00
2018-07-23T16:30:15.003Z,95496.00
2018-07-23T16:32:44.496Z,95490.00
2018-07-23T16:35:14.246Z,95500.00
2018-07-23T16:37:43.691Z,95492.00
2018-07-23T16:40:13.745Z,95490.00
2018-07-23T16:42:43.250Z,95491.00
2018-07-23T16:45:12.638Z,95494.00
2018-07-23T16:47:42.147Z,95484.00
2018-07-23T16:50:11.559Z,95488.00
2018-07-23T16:52:41.744Z,95493.00
2018-07-23T16:55:11.172Z,95493.00
2018-07-23T16:57:40.550Z,95493.00
2018-07-23T17:00:09.900Z,95495.00
2018-07-23T17:02:39.330Z,95507.00
2018-07-23T17:05:08.782Z,95508.00
2018-07-23T17:07:38.186Z,95512.00
2018-07-23T17:10:07.585Z,95508.00
2018-07-23T17:12:37.055Z,95520.00
2018-07-23T17:15:07.103Z,95518.00
2018-07-23T17:17:36.594Z,95517.00
2018-07-23T17:20:06.913Z,95529.00
2018-07-23T17:22:37.093Z,95530.00
2018-07-23T17:25:06.548Z,95528.00
2018-07-23T17:27:35.977Z,95536.00
2018-07-23T17:30:05.648Z,95540.00
2018-07-23T17:32:35.162Z,95537.00
2018-07-23T17:35:05.081Z,95536.00
2018-07-23T17:40:36.300Z,95540.00
2018-07-23T17:43:08.393Z,95546.00
2018-07-23T17:45:37.969Z,95553.00
2018-07-23T17:48:31.364Z,95557.00
2018-07-23T17:51:05.328Z,95550.00
2018-07-23T17:53:35.163Z,95560.00
2018-07-23T17:56:05.816Z,95564.00
2018-07-23T17:58:38.733Z,95588.00
2018-07-23T18:01:08.829Z,95589.00
2018-07-23T18:03:38.421Z,95598.00
2018-07-23T18:06:11.835Z,95609.00
2018-07-23T18:08:51.219Z,95599.00
2018-07-23T18:11:21.813Z,95600.00
2018-07-23T18:16:53.393Z,95617.00
2018-07-23T18:19:22.989Z,95615.00
2018-07-23T18:21:52.567Z,95620.00
2018-07-23T18:24:25.878Z,95619.00
2018-07-23T18:27:01.487Z,95608.00
2018-07-23T18:29:31.813Z,95603.00
2018-07-23T18:32:05.656Z,95603.00
2018-07-23T18:34:46.920Z,95599.00
2018-07-23T18:37:19.242Z,95597.00
2018-07-23T18:39:53.325Z,95599.00
2018-07-23T18:42:23.865Z,95605.00
2018-07-23T18:44:53.996Z,95605.00
2018-07-23T18:47:23.558Z,95607.00
2018-07-23T18:49:59.689Z,95608.00
2018-07-23T18:52:30.473Z,95604.00
2018-07-23T18:55:02.414Z,95610.00
2018-07-23T18:57:32.409Z,95612.00
2018-07-23T19:00:01.823Z,95605.00
2018-07-23T19:02:32.975Z,95620.00
2018-07-23T19:05:02.778Z,95615.00
2018-07-23T19:07:33.257Z,95620.00
2018-07-23T19:10:03.730Z,95622.00
2018-07-23T19:12:34.151Z,95629.00
2018-07-23T19:15:04.198Z,95622.00
2018-07-23T19:17:34.655Z,95626.00
2018-07-23T19:20:04.611Z,95629.00
2018-07-23T19:22:40.371Z,95633.00
2018-07-23T19:25:11.306Z,95622.00
2018-07-23T19:43:46.124Z,95638.00
2018-07-23T19:46:16.466Z,95650.00
2018-07-23T19:48:46.952Z,95650.00
2018-07-23T19:51:16.553Z,95657.00
2018-07-23T19:53:46.747Z,95653.00
2018-07-23T19:56:16.311Z,95660.00
2018-07-23T19:58:46.473Z,95667.00
2018-07-23T20:01:17.969Z,95669.00
2018-07-23T20:03:47.542Z,95663.00
2018-07-23T20:06:20.891Z,95669.00
2018-07-23T20:08:56.153Z,95673.00
2018-07-23T20:11:27.289Z,95662.00
2018-07-23T20:13:57.422Z,95660.00
2018-07-23T20:16:26.892Z,95653.00
2018-07-23T20:18:56.335Z,95661.00
2018-07-23T20:21:26.973Z,95661.00
2018-07-23T20:24:05.985Z,95650.00
2018-07-23T20:26:37.919Z,95644.00
2018-07-23T20:29:09.468Z,95650.00
2018-07-23T20:31:39.029Z,95650.00
2018-07-23T20:34:10.083Z,95635.00
2018-07-23T20:36:44.086Z,95637.00
2018-07-23T20:39:14.866Z,95635.00
2018-07-23T20:41:55.575Z,95632.00
2018-07-23T20:44:25.593Z,95638.00
2018-07-23T20:46:54.986Z,95634.00
2018-07-23T20:49:24.400Z,95632.00
2018-07-23T20:51:54.823Z,95624.00
2018-07-23T20:54:24.840Z,95623.00
2018-07-23T20:56:54.267Z,95617.00
2018-07-23T20:59:23.648Z,95617.00
2018-07-23T21:01:53.465Z,95610.00
2018-07-23T21:04:23.509Z,95610.00
2018-07-23T21:06:52.938Z,95607.00
2018-07-23T21:09:22.277Z,95605.00
2018-07-23T21:11:54.124Z,95605.00
2018-07-23T21:14:23.748Z,95607.00
2018-07-23T21:16:53.160Z,95607.00
2018-07-23T21:19:22.687Z,95603.00
2018-07-23T21:21:52.112Z,95602.00
2018-07-23T21:24:21.551Z,95607.00
2018-07-23T21:26:51.491Z,95599.00
2018-07-23T21:29:21.277Z,95596.00
2018-07-23T21:31:52.871Z,95596.00
2018-07-23T21:34:22.299Z,95596.00
2018-07-23T21:36:51.887Z,95592.00
2018-07-23T21:39:21.416Z,95595.00
2018-07-23T21:41:55.123Z,95599.00
2018-07-23T21:44:29.181Z,95603.00
2018-07-23T21:46:59.029Z,95607.00
2018-07-23T21:49:28.514Z,95603.00
2018-07-23T21:51:58.110Z,95603.00
2018-07-23T21:54:29.476Z,95603.00
2018-07-23T21:56:59.402Z,95600.00
2018-07-23T21:59:28.841Z,95595.00
2018-07-23T22:01:58.379Z,95606.00
2018-07-23T22:04:28.300Z,95601.00
2018-07-23T22:06:57.720Z,95596.00
2018-07-23T22:09:27.816Z,95596.00
2018-07-23T22:11:57.923Z,95596.00
2018-07-23T22:14:27.938Z,95599.00
2018-07-23T22:16:58.014Z,95593.00
2018-07-23T22:19:27.424Z,95591.00
2018-07-23T22:21:56.898Z,95585.00
2018-07-23T22:24:26.684Z,95584.00
2018-07-23T22:26:57.333Z,95587.00
2018-07-23T22:29:26.746Z,95582.00
2018-07-23T22:31:56.268Z,95584.00
2018-07-23T22:34:26.135Z,95583.00
2018-07-23T22:36:55.645Z,95574.00
2018-07-23T22:39:29.705Z,95578.00
2018-07-23T22:41:59.252Z,95574.00
2018-07-23T22:44:28.632Z,95581.00
2018-07-23T22:46:58.216Z,95579.00
2018-07-23T22:49:27.675Z,95582.00
2018-07-23T22:51:57.166Z,95586.00
2018-07-23T22:54:26.536Z,95577.00
2018-07-23T22:56:56.105Z,95584.00
2018-07-23T22:59:25.465Z,95587.00
2018-07-23T23:01:54.955Z,95576.00
2018-07-23T23:04:28.183Z,95576.00
2018-07-23T23:06:57.645Z,95578.00
2018-07-23T23:09:26.769Z,95577.00
2018-07-23T23:11:56.133Z,95584.00
2018-07-23T23:14:25.581Z,95580.00
2018-07-23T23:16:55.065Z,95578.00
2018-07-23T23:19:24.476Z,95569.00
2018-07-23T23:21:53.949Z,95566.00
2018-07-23T23:24:23.377Z,95562.00
2018-07-23T23:26:53.380Z,95558.00
2018-07-23T23:29:24.568Z,95560.00
2018-07-23T23:31:54.076Z,95568.00
2018-07-23T23:34:23.672Z,95561.00
2018-07-23T23:36:53.050Z,95555.00
2018-07-23T23:39:22.470Z,95556.00
2018-07-23T23:41:53.214Z,95557.00
2018-07-23T23:44:22.666Z,95552.00
2018-07-23T23:46:52.692Z,95551.00
2018-07-23T23:49:22.296Z,95541.00
2018-07-23T23:51:52.330Z,95545.00
2018-07-23T23:54:21.822Z,95549.00
2018-07-23T23:56:51.254Z,95546.00
2018-07-23T23:59:25.933Z,95538.00
